sensor_id;sensor_type;location;lat;lon;timestamp;pressure;altitude;pressure_sealevel;temperature;humidity
24031;BME280;12240;51.142;22.486;2022-09-09T00:02:13;99163.19;;;11.69;100.00
24031;BME280;12240;51.142;22.486;2022-09-09T00:05:29;99160.19;;;11.64;100.00
24031;BME280;12240;51.142;22.486;2022-09-09T00:08:00;99166.28;;;11.56;100.00
24031;BME280;12240;51.142;22.486;2022-09-09T00:10:38;99158.31;;;11.64;100.00
24031;BME280;12240;51.142;22.486;2022-09-09T00:13:29;99156.97;;;11.60;100.00
24031;BME280;12240;51.142;22.486;2022-09-09T00:16:20;99125.44;;;11.48;100.00
24031;BME280;12240;51.142;22.486;2022-09-09T00:19:12;99159.13;;;11.57;100.00
24031;BME280;12240;51.142;22.486;2022-09-09T00:22:24;99072.88;;;11.08;100.00
24031;BME280;12240;51.142;22.486;2022-09-09T00:24:56;99075.22;;;11.11;100.00
24031;BME280;12240;51.142;22.486;2022-09-09T00:27:47;99117.22;;;11.33;100.00
24031;BME280;12240;51.142;22.486;2022-09-09T00:30:23;99032.19;;;10.82;100.00
24031;BME280;12240;51.142;22.486;2022-09-09T00:33:01;99143.75;;;11.51;100.00
24031;BME280;12240;51.142;22.486;2022-09-09T00:35:38;99170.47;;;11.59;100.00
24031;BME280;12240;51.142;22.486;2022-09-09T00:41:22;99163.09;;;11.53;100.00
24031;BME280;12240;51.142;22.486;2022-09-09T00:44:02;99115.22;;;11.19;100.00
24031;BME280;12240;51.142;22.486;2022-09-09T00:58:07;99141.09;;;11.43;100.00
24031;BME280;12240;51.142;22.486;2022-09-09T01:00:50;99093.06;;;11.19;100.00
24031;BME280;12240;51.142;22.486;2022-09-09T01:03:31;99160.44;;;11.53;100.00
24031;BME280;12240;51.142;22.486;2022-09-09T01:06:31;99162.59;;;11.49;100.00
24031;BME280;12240;51.142;22.486;2022-09-09T01:17:26;99141.72;;;11.29;100.00
24031;BME280;12240;51.142;22.486;2022-09-09T01:23:30;99152.25;;;11.38;100.00
24031;BME280;12240;51.142;22.486;2022-09-09T01:26:39;99133.72;;;11.37;100.00
24031;BME280;12240;51.142;22.486;2022-09-09T01:29:17;99154.41;;;11.35;100.00
24031;BME280;12240;51.142;22.486;2022-09-09T01:32:35;99092.66;;;10.98;100.00
24031;BME280;12240;51.142;22.486;2022-09-09T01:34:52;99151.41;;;11.30;100.00
24031;BME280;12240;51.142;22.486;2022-09-09T01:37:21;99107.84;;;11.05;100.00
24031;BME280;12240;51.142;22.486;2022-09-09T01:39:49;99085.00;;;10.95;100.00
24031;BME280;12240;51.142;22.486;2022-09-09T01:42:18;99083.34;;;10.94;100.00
24031;BME280;12240;51.142;22.486;2022-09-09T01:44:46;99154.09;;;11.38;100.00
24031;BME280;12240;51.142;22.486;2022-09-09T01:47:15;99141.72;;;11.37;100.00
24031;BME280;12240;51.142;22.486;2022-09-09T01:50:10;99115.06;;;11.29;100.00
24031;BME280;12240;51.142;22.486;2022-09-09T01:52:43;99144.41;;;11.37;100.00
24031;BME280;12240;51.142;22.486;2022-09-09T01:55:16;99150.56;;;11.37;100.00
24031;BME280;12240;51.142;22.486;2022-09-09T02:01:16;99132.75;;;11.38;100.00
24031;BME280;12240;51.142;22.486;2022-09-09T02:03:53;99096.72;;;11.18;100.00
24031;BME280;12240;51.142;22.486;2022-09-09T02:06:38;98936.16;;;10.26;100.00
24031;BME280;12240;51.142;22.486;2022-09-09T02:09:25;99132.75;;;11.38;100.00
24031;BME280;12240;51.142;22.486;2022-09-09T02:12:08;99121.75;;;11.41;100.00
24031;BME280;12240;51.142;22.486;2022-09-09T02:14:55;99100.44;;;11.33;100.00
24031;BME280;12240;51.142;22.486;2022-09-09T02:17:30;99063.75;;;11.11;100.00
24031;BME280;12240;51.142;22.486;2022-09-09T02:20:15;99061.72;;;11.13;100.00
24031;BME280;12240;51.142;22.486;2022-09-09T02:22:50;99101.44;;;11.40;100.00
24031;BME280;12240;51.142;22.486;2022-09-09T02:25:23;99045.38;;;11.08;100.00
24031;BME280;12240;51.142;22.486;2022-09-09T02:27:56;99115.44;;;11.42;100.00
24031;BME280;12240;51.142;22.486;2022-09-09T02:30:30;98978.22;;;10.72;100.00
24031;BME280;12240;51.142;22.486;2022-09-09T02:33:01;99087.78;;;11.43;100.00
24031;BME280;12240;51.142;22.486;2022-09-09T02:35:45;99096.63;;;11.43;100.00
24031;BME280;12240;51.142;22.486;2022-09-09T02:38:20;99089.44;;;11.28;100.00
24031;BME280;12240;51.142;22.486;2022-09-09T02:40:56;99036.25;;;11.18;100.00
24031;BME280;12240;51.142;22.486;2022-09-09T02:43:31;99104.63;;;11.51;100.00
24031;BME280;12240;51.142;22.486;2022-09-09T02:52:07;99106.13;;;11.54;100.00
24031;BME280;12240;51.142;22.486;2022-09-09T02:54:40;99106.94;;;11.54;100.00
24031;BME280;12240;51.142;22.486;2022-09-09T02:59:48;99103.47;;;11.54;100.00
24031;BME280;12240;51.142;22.486;2022-09-09T03:02:18;99093.94;;;11.51;100.00
24031;BME280;12240;51.142;22.486;2022-09-09T03:04:51;99111.81;;;11.59;100.00
24031;BME280;12240;51.142;22.486;2022-09-09T03:07:20;99090.94;;;11.46;100.00
24031;BME280;12240;51.142;22.486;2022-09-09T03:09:50;99053.25;;;11.25;100.00
24031;BME280;12240;51.142;22.486;2022-09-09T03:12:19;99110.63;;;11.61;100.00
24031;BME280;12240;51.142;22.486;2022-09-09T03:14:48;99069.94;;;11.35;100.00
24031;BME280;12240;51.142;22.486;2022-09-09T03:17:18;99065.94;;;11.39;100.00
24031;BME280;12240;51.142;22.486;2022-09-09T03:19:51;99097.13;;;11.63;100.00
24031;BME280;12240;51.142;22.486;2022-09-09T03:22:22;99111.63;;;11.60;100.00
24031;BME280;12240;51.142;22.486;2022-09-09T03:24:50;99111.28;;;11.63;100.00
24031;BME280;12240;51.142;22.486;2022-09-09T03:27:20;99117.84;;;11.69;100.00
24031;BME280;12240;51.142;22.486;2022-09-09T03:29:48;98949.25;;;10.61;100.00
24031;BME280;12240;51.142;22.486;2022-09-09T03:32:23;99068.09;;;11.36;100.00
24031;BME280;12240;51.142;22.486;2022-09-09T03:34:53;99109.63;;;11.62;100.00
24031;BME280;12240;51.142;22.486;2022-09-09T03:37:21;99121.81;;;11.73;100.00
24031;BME280;12240;51.142;22.486;2022-09-09T03:39:50;99100.31;;;11.66;100.00
24031;BME280;12240;51.142;22.486;2022-09-09T03:42:23;99123.69;;;11.73;100.00
24031;BME280;12240;51.142;22.486;2022-09-09T03:44:54;99107.00;;;11.70;100.00
24031;BME280;12240;51.142;22.486;2022-09-09T03:47:25;99058.44;;;11.35;100.00
24031;BME280;12240;51.142;22.486;2022-09-09T03:49:59;99116.81;;;11.70;100.00
24031;BME280;12240;51.142;22.486;2022-09-09T03:52:28;99118.81;;;11.68;100.00
24031;BME280;12240;51.142;22.486;2022-09-09T03:54:58;99122.00;;;11.71;100.00
24031;BME280;12240;51.142;22.486;2022-09-09T03:57:26;99118.81;;;11.68;100.00
24031;BME280;12240;51.142;22.486;2022-09-09T03:59:54;99087.59;;;11.44;100.00
24031;BME280;12240;51.142;22.486;2022-09-09T04:02:22;99144.19;;;11.72;100.00
24031;BME280;12240;51.142;22.486;2022-09-09T04:04:52;99143.16;;;11.73;100.00
24031;BME280;12240;51.142;22.486;2022-09-09T04:07:20;99125.16;;;11.67;100.00
24031;BME280;12240;51.142;22.486;2022-09-09T04:09:49;99136.84;;;11.74;100.00
24031;BME280;12240;51.142;22.486;2022-09-09T04:12:19;99126.81;;;11.68;100.00
24031;BME280;12240;51.142;22.486;2022-09-09T04:14:47;99132.00;;;11.78;100.00
24031;BME280;12240;51.142;22.486;2022-09-09T04:17:16;99133.84;;;11.77;100.00
24031;BME280;12240;51.142;22.486;2022-09-09T04:19:45;99132.81;;;11.78;100.00
24031;BME280;12240;51.142;22.486;2022-09-09T04:22:13;99124.50;;;11.73;100.00
24031;BME280;12240;51.142;22.486;2022-09-09T04:24:42;99115.50;;;11.74;100.00
24031;BME280;12240;51.142;22.486;2022-09-09T04:27:15;99115.50;;;11.74;100.00
24031;BME280;12240;51.142;22.486;2022-09-09T04:29:43;99127.34;;;11.80;100.00
24031;BME280;12240;51.142;22.486;2022-09-09T04:32:12;99129.19;;;11.79;100.00
24031;BME280;12240;51.142;22.486;2022-09-09T04:34:41;99111.31;;;11.71;100.00
24031;BME280;12240;51.142;22.486;2022-09-09T04:37:10;99133.50;;;11.80;100.00
24031;BME280;12240;51.142;22.486;2022-09-09T04:39:38;99112.50;;;11.69;100.00
24031;BME280;12240;51.142;22.486;2022-09-09T04:42:07;99137.00;;;11.81;100.00
24031;BME280;12240;51.142;22.486;2022-09-09T04:44:36;99082.44;;;11.51;100.00
24031;BME280;12240;51.142;22.486;2022-09-09T04:47:05;99137.69;;;11.83;100.00
24031;BME280;12240;51.142;22.486;2022-09-09T04:49:33;99084.59;;;11.47;100.00
24031;BME280;12240;51.142;22.486;2022-09-09T04:52:04;99140.34;;;11.83;100.00
24031;BME280;12240;51.142;22.486;2022-09-09T04:54:35;99144.84;;;11.82;100.00
24031;BME280;12240;51.142;22.486;2022-09-09T04:57:03;99072.63;;;11.43;100.00
24031;BME280;12240;51.142;22.486;2022-09-09T04:59:31;99128.16;;;11.72;100.00
24031;BME280;12240;51.142;22.486;2022-09-09T05:02:01;99133.66;;;11.79;100.00
24031;BME280;12240;51.142;22.486;2022-09-09T05:04:29;99135.84;;;11.75;100.00
24031;BME280;12240;51.142;22.486;2022-09-09T05:06:59;99136.50;;;11.77;100.00
24031;BME280;12240;51.142;22.486;2022-09-09T05:09:27;99023.09;;;11.09;100.00
24031;BME280;12240;51.142;22.486;2022-09-09T05:11:55;99137.53;;;11.76;100.00
24031;BME280;12240;51.142;22.486;2022-09-09T05:14:29;99038.25;;;11.16;100.00
24031;BME280;12240;51.142;22.486;2022-09-09T05:16:59;99151.50;;;11.78;100.00
24031;BME280;12240;51.142;22.486;2022-09-09T05:19:27;99149.16;;;11.75;100.00
24031;BME280;12240;51.142;22.486;2022-09-09T05:21:55;99150.53;;;11.71;100.00
24031;BME280;12240;51.142;22.486;2022-09-09T05:24:32;99099.75;;;11.39;100.00
24031;BME280;12240;51.142;22.486;2022-09-09T05:27:02;99148.31;;;11.66;100.00
24031;BME280;12240;51.142;22.486;2022-09-09T05:29:31;99144.28;;;11.54;100.00
24031;BME280;12240;51.142;22.486;2022-09-09T05:32:04;99141.09;;;11.51;100.00
24031;BME280;12240;51.142;22.486;2022-09-09T05:34:34;99120.28;;;11.38;100.00
24031;BME280;12240;51.142;22.486;2022-09-09T05:37:02;99096.41;;;11.21;100.00
24031;BME280;12240;51.142;22.486;2022-09-09T05:39:32;99149.78;;;11.53;100.00
24031;BME280;12240;51.142;22.486;2022-09-09T05:42:02;99156.78;;;11.54;100.00
24031;BME280;12240;51.142;22.486;2022-09-09T05:44:33;99162.44;;;11.51;100.00
24031;BME280;12240;51.142;22.486;2022-09-09T05:47:02;99161.75;;;11.49;100.00
24031;BME280;12240;51.142;22.486;2022-09-09T05:49:30;99169.44;;;11.52;100.00
24031;BME280;12240;51.142;22.486;2022-09-09T05:51:59;99117.22;;;11.17;100.00
24031;BME280;12240;51.142;22.486;2022-09-09T05:54:27;99134.75;;;11.28;100.00
24031;BME280;12240;51.142;22.486;2022-09-09T05:56:56;99163.91;;;11.45;100.00
24031;BME280;12240;51.142;22.486;2022-09-09T05:59:24;99165.09;;;11.51;100.00
24031;BME280;12240;51.142;22.486;2022-09-09T06:01:55;99180.78;;;11.54;100.00
24031;BME280;12240;51.142;22.486;2022-09-09T06:04:30;99176.63;;;11.59;100.00
24031;BME280;12240;51.142;22.486;2022-09-09T06:07:00;99174.47;;;11.63;100.00
24031;BME280;12240;51.142;22.486;2022-09-09T06:09:30;99125.44;;;11.40;100.00
24031;BME280;12240;51.142;22.486;2022-09-09T06:11:58;99138.75;;;11.40;100.00
24031;BME280;12240;51.142;22.486;2022-09-09T06:14:26;99179.88;;;11.71;100.00
24031;BME280;12240;51.142;22.486;2022-09-09T06:16:58;99123.28;;;11.43;100.00
24031;BME280;12240;51.142;22.486;2022-09-09T06:19:29;99134.13;;;11.50;100.00
24031;BME280;12240;51.142;22.486;2022-09-09T06:22:00;99187.34;;;11.84;100.00
24031;BME280;12240;51.142;22.486;2022-09-09T06:24:30;99180.19;;;11.84;100.00
24031;BME280;12240;51.142;22.486;2022-09-09T06:27:00;99180.19;;;11.92;100.00
24031;BME280;12240;51.142;22.486;2022-09-09T06:29:33;99124.78;;;11.54;100.00
24031;BME280;12240;51.142;22.486;2022-09-09T06:32:03;99189.22;;;11.99;100.00
24031;BME280;12240;51.142;22.486;2022-09-09T06:34:32;99138.50;;;11.67;100.00
24031;BME280;12240;51.142;22.486;2022-09-09T06:37:00;99190.56;;;12.03;100.00
24031;BME280;12240;51.142;22.486;2022-09-09T06:39:37;99196.22;;;12.00;100.00
24031;BME280;12240;51.142;22.486;2022-09-09T06:42:06;99194.22;;;12.02;100.00
24031;BME280;12240;51.142;22.486;2022-09-09T06:44:57;99180.53;;;11.89;100.00
24031;BME280;12240;51.142;22.486;2022-09-09T06:47:35;99203.41;;;12.08;100.00
24031;BME280;12240;51.142;22.486;2022-09-09T06:50:04;99206.56;;;12.11;100.00
24031;BME280;12240;51.142;22.486;2022-09-09T06:52:35;99217.56;;;12.16;100.00
24031;BME280;12240;51.142;22.486;2022-09-09T06:55:05;99110.78;;;11.60;100.00
24031;BME280;12240;51.142;22.486;2022-09-09T06:57:34;99199.56;;;12.10;100.00
24031;BME280;12240;51.142;22.486;2022-09-09T07:00:13;99126.13;;;11.58;100.00
24031;BME280;12240;51.142;22.486;2022-09-09T07:02:42;99219.56;;;12.14;100.00
24031;BME280;12240;51.142;22.486;2022-09-09T07:05:12;99215.91;;;12.15;100.00
24031;BME280;12240;51.142;22.486;2022-09-09T07:07:42;99223.25;;;12.21;100.00
24031;BME280;12240;51.142;22.486;2022-09-09T07:10:12;99222.91;;;12.16;100.00
24031;BME280;12240;51.142;22.486;2022-09-09T07:12:40;99158.19;;;11.90;100.00
24031;BME280;12240;51.142;22.486;2022-09-09T07:15:11;99218.75;;;12.14;100.00
24031;BME280;12240;51.142;22.486;2022-09-09T07:17:43;99221.59;;;12.12;100.00
24031;BME280;12240;51.142;22.486;2022-09-09T07:20:11;99231.94;;;12.23;100.00
24031;BME280;12240;51.142;22.486;2022-09-09T07:22:41;99233.44;;;12.10;100.00
24031;BME280;12240;51.142;22.486;2022-09-09T07:25:10;99182.88;;;11.84;100.00
24031;BME280;12240;51.142;22.486;2022-09-09T07:27:38;99186.88;;;11.88;100.00
24031;BME280;12240;51.142;22.486;2022-09-09T07:30:10;99238.59;;;12.03;100.00
24031;BME280;12240;51.142;22.486;2022-09-09T07:32:45;99237.59;;;11.96;100.00
24031;BME280;12240;51.142;22.486;2022-09-09T07:35:13;99238.44;;;11.97;100.00
24031;BME280;12240;51.142;22.486;2022-09-09T07:37:41;99246.44;;;12.05;100.00
24031;BME280;12240;51.142;22.486;2022-09-09T07:40:13;99195.19;;;11.69;100.00
24031;BME280;12240;51.142;22.486;2022-09-09T07:42:42;99200.44;;;11.61;100.00
24031;BME280;12240;51.142;22.486;2022-09-09T07:45:11;99252.25;;;11.92;100.00
24031;BME280;12240;51.142;22.486;2022-09-09T07:47:41;99216.19;;;11.64;100.00
24031;BME280;12240;51.142;22.486;2022-09-09T07:50:10;99221.34;;;11.65;100.00
24031;BME280;12240;51.142;22.486;2022-09-09T07:52:39;99261.09;;;11.93;100.00
24031;BME280;12240;51.142;22.486;2022-09-09T07:55:08;99249.56;;;11.92;100.00
24031;BME280;12240;51.142;22.486;2022-09-09T07:57:37;99269.31;;;12.07;100.00
24031;BME280;12240;51.142;22.486;2022-09-09T08:00:06;99174.28;;;11.48;100.00
24031;BME280;12240;51.142;22.486;2022-09-09T08:02:42;99270.63;;;12.11;100.00
24031;BME280;12240;51.142;22.486;2022-09-09T08:05:12;99280.81;;;12.24;100.00
24031;BME280;12240;51.142;22.486;2022-09-09T08:07:40;99263.63;;;12.10;100.00
24031;BME280;12240;51.142;22.486;2022-09-09T08:10:08;99231.22;;;11.89;100.00
24031;BME280;12240;51.142;22.486;2022-09-09T08:12:40;99297.34;;;12.19;100.00
24031;BME280;12240;51.142;22.486;2022-09-09T08:15:23;99238.09;;;11.92;100.00
24031;BME280;12240;51.142;22.486;2022-09-09T08:17:52;99268.47;;;12.15;100.00
24031;BME280;12240;51.142;22.486;2022-09-09T08:20:19;99230.94;;;12.08;100.00
24031;BME280;12240;51.142;22.486;2022-09-09T08:22:48;99258.78;;;12.22;100.00
24031;BME280;12240;51.142;22.486;2022-09-09T08:25:19;99293.00;;;12.42;100.00
24031;BME280;12240;51.142;22.486;2022-09-09T08:27:47;99297.72;;;12.48;100.00
24031;BME280;12240;51.142;22.486;2022-09-09T08:30:15;99199.06;;;11.99;100.00
24031;BME280;12240;51.142;22.486;2022-09-09T08:32:43;99287.34;;;12.45;100.00
24031;BME280;12240;51.142;22.486;2022-09-09T08:35:13;99286.84;;;12.50;100.00
24031;BME280;12240;51.142;22.486;2022-09-09T08:37:42;99292.69;;;12.37;100.00
24031;BME280;12240;51.142;22.486;2022-09-09T08:40:22;99291.03;;;12.44;100.00
24031;BME280;12240;51.142;22.486;2022-09-09T08:42:57;99272.31;;;12.20;100.00
24031;BME280;12240;51.142;22.486;2022-09-09T08:45:37;99245.97;;;12.17;100.00
24031;BME280;12240;51.142;22.486;2022-09-09T08:49:02;99243.25;;;12.09;100.00
24031;BME280;12240;51.142;22.486;2022-09-09T08:51:34;99296.69;;;12.49;100.00
24031;BME280;12240;51.142;22.486;2022-09-09T08:54:03;99298.34;;;12.42;100.00
24031;BME280;12240;51.142;22.486;2022-09-09T08:56:33;99294.03;;;12.49;100.00
24031;BME280;12240;51.142;22.486;2022-09-09T08:59:04;99289.53;;;12.50;100.00
24031;BME280;12240;51.142;22.486;2022-09-09T09:08:03;99301.84;;;12.59;100.00
24031;BME280;12240;51.142;22.486;2022-09-09T09:11:00;99288.50;;;12.59;100.00
24031;BME280;12240;51.142;22.486;2022-09-09T09:14:03;99294.53;;;12.69;100.00
24031;BME280;12240;51.142;22.486;2022-09-09T09:19:34;99309.03;;;12.99;100.00
24031;BME280;12240;51.142;22.486;2022-09-09T09:25:22;99288.00;;;12.87;100.00
24031;BME280;12240;51.142;22.486;2022-09-09T09:28:12;99309.72;;;12.93;100.00
24031;BME280;12240;51.142;22.486;2022-09-09T09:31:03;99299.03;;;12.76;100.00
24031;BME280;12240;51.142;22.486;2022-09-09T09:33:51;99301.38;;;12.87;100.00
24031;BME280;12240;51.142;22.486;2022-09-09T09:36:37;99208.41;;;12.51;100.00
24031;BME280;12240;51.142;22.486;2022-09-09T09:39:07;99276.50;;;13.03;100.00
24031;BME280;12240;51.142;22.486;2022-09-09T09:41:59;99305.19;;;13.17;100.00
24031;BME280;12240;51.142;22.486;2022-09-09T09:44:35;99305.50;;;13.30;100.00
24031;BME280;12240;51.142;22.486;2022-09-09T09:47:19;99305.13;;;13.41;100.00
24031;BME280;12240;51.142;22.486;2022-09-09T09:50:00;99312.00;;;13.36;100.00
24031;BME280;12240;51.142;22.486;2022-09-09T09:52:35;99305.66;;;13.29;100.00
24031;BME280;12240;51.142;22.486;2022-09-09T09:55:13;99303.03;;;13.13;100.00
24031;BME280;12240;51.142;22.486;2022-09-09T09:57:43;99319.81;;;13.53;100.00
24031;BME280;12240;51.142;22.486;2022-09-09T10:00:17;99322.34;;;13.85;100.00
24031;BME280;12240;51.142;22.486;2022-09-09T10:02:53;99275.31;;;13.52;100.00
24031;BME280;12240;51.142;22.486;2022-09-09T10:05:28;99304.88;;;13.59;100.00
24031;BME280;12240;51.142;22.486;2022-09-09T10:11:21;99320.44;;;13.63;100.00
24031;BME280;12240;51.142;22.486;2022-09-09T10:14:28;99320.78;;;13.52;100.00
24031;BME280;12240;51.142;22.486;2022-09-09T10:24:07;99338.09;;;13.72;100.00
24031;BME280;12240;51.142;22.486;2022-09-09T10:26:51;99291.91;;;13.48;100.00
24031;BME280;12240;51.142;22.486;2022-09-09T10:30:12;99330.59;;;13.68;100.00
24031;BME280;12240;51.142;22.486;2022-09-09T10:32:55;99334.09;;;13.76;100.00
24031;BME280;12240;51.142;22.486;2022-09-09T10:35:34;99338.28;;;13.79;100.00
24031;BME280;12240;51.142;22.486;2022-09-09T10:38:41;99335.25;;;13.82;100.00
24031;BME280;12240;51.142;22.486;2022-09-09T10:55:59;99350.16;;;13.76;100.00
24031;BME280;12240;51.142;22.486;2022-09-09T10:58:59;99345.22;;;13.88;100.00
24031;BME280;12240;51.142;22.486;2022-09-09T11:05:04;99350.47;;;14.12;100.00
24031;BME280;12240;51.142;22.486;2022-09-09T11:07:41;99292.66;;;13.64;100.00
24031;BME280;12240;51.142;22.486;2022-09-09T11:10:41;99337.38;;;13.94;100.00
24031;BME280;12240;51.142;22.486;2022-09-09T11:13:54;99331.28;;;14.00;100.00
24031;BME280;12240;51.142;22.486;2022-09-09T11:16:33;99350.66;;;14.11;100.00
24031;BME280;12240;51.142;22.486;2022-09-09T11:21:46;99338.59;;;13.84;100.00
24031;BME280;12240;51.142;22.486;2022-09-09T11:27:42;99338.19;;;13.95;100.00
24031;BME280;12240;51.142;22.486;2022-09-09T11:30:22;99292.53;;;13.58;100.00
24031;BME280;12240;51.142;22.486;2022-09-09T11:38:47;99359.53;;;14.11;100.00
24031;BME280;12240;51.142;22.486;2022-09-09T11:41:16;99313.97;;;13.88;100.00
24031;BME280;12240;51.142;22.486;2022-09-09T11:43:52;99342.78;;;14.09;100.00
24031;BME280;12240;51.142;22.486;2022-09-09T11:46:31;99362.16;;;14.27;100.00
24031;BME280;12240;51.142;22.486;2022-09-09T11:49:05;99380.38;;;14.32;100.00
24031;BME280;12240;51.142;22.486;2022-09-09T11:51:34;99382.69;;;14.35;100.00
24031;BME280;12240;51.142;22.486;2022-09-09T11:54:48;99331.28;;;14.00;100.00
24031;BME280;12240;51.142;22.486;2022-09-09T11:57:32;99371.50;;;14.31;100.00
24031;BME280;12240;51.142;22.486;2022-09-09T12:00:04;99380.91;;;14.27;100.00
24031;BME280;12240;51.142;22.486;2022-09-09T12:02:48;99381.28;;;14.47;100.00
24031;BME280;12240;51.142;22.486;2022-09-09T12:05:20;99382.50;;;14.67;100.00
24031;BME280;12240;51.142;22.486;2022-09-09T12:07:56;99387.38;;;14.63;100.00
24031;BME280;12240;51.142;22.486;2022-09-09T12:10:39;99391.44;;;14.59;100.00
24031;BME280;12240;51.142;22.486;2022-09-09T12:15:55;99386.44;;;14.56;100.00
24031;BME280;12240;51.142;22.486;2022-09-09T12:18:26;99388.03;;;14.65;100.00
24031;BME280;12240;51.142;22.486;2022-09-09T12:23:54;99368.63;;;14.63;100.00
24031;BME280;12240;51.142;22.486;2022-09-09T12:26:37;99384.06;;;14.61;100.00
24031;BME280;12240;51.142;22.486;2022-09-09T12:32:10;99393.56;;;14.64;100.00
24031;BME280;12240;51.142;22.486;2022-09-09T12:40:27;99363.19;;;14.49;100.00
24031;BME280;12240;51.142;22.486;2022-09-09T12:42:56;99367.66;;;14.56;100.00
24031;BME280;12240;51.142;22.486;2022-09-09T12:45:26;99398.75;;;14.65;100.00
24031;BME280;12240;51.142;22.486;2022-09-09T12:48:25;99398.06;;;14.94;100.00
24031;BME280;12240;51.142;22.486;2022-09-09T12:50:55;99346.66;;;14.68;100.00
24031;BME280;12240;51.142;22.486;2022-09-09T12:53:35;99393.19;;;14.89;100.00
24031;BME280;12240;51.142;22.486;2022-09-09T12:56:20;99382.75;;;14.80;100.00
24031;BME280;12240;51.142;22.486;2022-09-09T12:58:51;99395.13;;;14.81;100.00
24031;BME280;12240;51.142;22.486;2022-09-09T13:01:30;99381.84;;;14.87;100.00
24031;BME280;12240;51.142;22.486;2022-09-09T13:03:59;99337.25;;;14.72;100.00
24031;BME280;12240;51.142;22.486;2022-09-09T13:06:30;99324.78;;;14.56;100.00
24031;BME280;12240;51.142;22.486;2022-09-09T13:09:02;99383.31;;;14.67;100.00
24031;BME280;12240;51.142;22.486;2022-09-09T13:11:42;99359.38;;;14.66;100.00
24031;BME280;12240;51.142;22.486;2022-09-09T13:14:32;99384.28;;;14.97;100.00
24031;BME280;12240;51.142;22.486;2022-09-09T13:17:23;99334.56;;;14.72;100.00
24031;BME280;12240;51.142;22.486;2022-09-09T13:19:52;99382.81;;;14.94;100.00
24031;BME280;12240;51.142;22.486;2022-09-09T13:22:37;99316.66;;;14.50;100.00
24031;BME280;12240;51.142;22.486;2022-09-09T13:25:19;99342.28;;;14.44;100.00
24031;BME280;12240;51.142;22.486;2022-09-09T13:28:01;99352.28;;;14.50;100.00
24031;BME280;12240;51.142;22.486;2022-09-09T13:30:36;99325.09;;;14.39;100.00
24031;BME280;12240;51.142;22.486;2022-09-09T13:35:57;99354.56;;;14.61;100.00
24031;BME280;12240;51.142;22.486;2022-09-09T13:38:29;99357.25;;;14.84;100.00
24031;BME280;12240;51.142;22.486;2022-09-09T13:41:09;99350.31;;;14.89;100.00
24031;BME280;12240;51.142;22.486;2022-09-09T13:43:44;99339.25;;;14.47;100.00
24031;BME280;12240;51.142;22.486;2022-09-09T13:46:35;99358.31;;;14.75;100.00
24031;BME280;12240;51.142;22.486;2022-09-09T13:51:46;99357.44;;;14.82;100.00
24031;BME280;12240;51.142;22.486;2022-09-09T13:54:18;99313.16;;;14.64;100.00
24031;BME280;12240;51.142;22.486;2022-09-09T13:56:47;99369.75;;;14.91;100.00
24031;BME280;12240;51.142;22.486;2022-09-09T13:59:19;99387.06;;;15.03;100.00
24031;BME280;12240;51.142;22.486;2022-09-09T14:01:48;99370.94;;;15.26;100.00
24031;BME280;12240;51.142;22.486;2022-09-09T14:04:17;99370.66;;;15.21;100.00
24031;BME280;12240;51.142;22.486;2022-09-09T14:06:46;99333.63;;;15.02;100.00
24031;BME280;12240;51.142;22.486;2022-09-09T14:09:17;99364.91;;;15.47;100.00
24031;BME280;12240;51.142;22.486;2022-09-09T14:11:45;99360.59;;;15.23;100.00
24031;BME280;12240;51.142;22.486;2022-09-09T14:14:15;99327.88;;;15.05;100.00
24031;BME280;12240;51.142;22.486;2022-09-09T14:16:43;99350.09;;;15.13;100.00
24031;BME280;12240;51.142;22.486;2022-09-09T14:19:12;99370.31;;;15.01;100.00
24031;BME280;12240;51.142;22.486;2022-09-09T14:21:40;99382.72;;;15.02;100.00
24031;BME280;12240;51.142;22.486;2022-09-09T14:24:08;99373.25;;;15.14;100.00
24031;BME280;12240;51.142;22.486;2022-09-09T14:26:40;99375.38;;;15.19;100.00
24031;BME280;12240;51.142;22.486;2022-09-09T14:29:08;99374.50;;;14.81;100.00
24031;BME280;12240;51.142;22.486;2022-09-09T14:31:36;99369.63;;;14.85;100.00
24031;BME280;12240;51.142;22.486;2022-09-09T14:34:04;99373.06;;;14.93;100.00
24031;BME280;12240;51.142;22.486;2022-09-09T14:36:33;99379.78;;;15.12;100.00
24031;BME280;12240;51.142;22.486;2022-09-09T14:39:01;99328.53;;;14.92;100.00
24031;BME280;12240;51.142;22.486;2022-09-09T14:41:30;99330.50;;;15.13;100.00
24031;BME280;12240;51.142;22.486;2022-09-09T14:43:58;99289.03;;;14.86;100.00
24031;BME280;12240;51.142;22.486;2022-09-09T14:46:27;99374.97;;;15.45;100.00
24031;BME280;12240;51.142;22.486;2022-09-09T14:48:55;99321.72;;;15.19;100.00
24031;BME280;12240;51.142;22.486;2022-09-09T14:51:25;99377.94;;;15.12;100.00
24031;BME280;12240;51.142;22.486;2022-09-09T14:53:58;99372.00;;;15.02;100.00
24031;BME280;12240;51.142;22.486;2022-09-09T14:56:30;99372.38;;;14.99;100.00
24031;BME280;12240;51.142;22.486;2022-09-09T14:58:59;99317.72;;;14.63;100.00
24031;BME280;12240;51.142;22.486;2022-09-09T15:01:31;99353.44;;;14.78;100.00
24031;BME280;12240;51.142;22.486;2022-09-09T15:04:03;99373.63;;;14.89;100.00
24031;BME280;12240;51.142;22.486;2022-09-09T15:06:34;99372.84;;;14.80;100.00
24031;BME280;12240;51.142;22.486;2022-09-09T15:09:04;99385.31;;;14.96;100.00
24031;BME280;12240;51.142;22.486;2022-09-09T15:11:37;99327.28;;;14.80;100.00